• Join FlightAware (Why Join?)
  • Login
  • US Flag 
07:05PM EDT


 

Airport Tracker/Info


-or-


 

Live Flight TrackerFlight Track Log ✈ RPA3253 ✈ 15-Jun-2013 ✈ KORD - KCLT

Flight Track Log - Related Links

Times and Time Zones

All times are in EDT time to prevent confusion due to time zone crossing. See the RPA3253 flight status page for this flight to view local times or setup timezone preferences in your user account.

Time Position Orientation Groundspeed Altitude Reporting Facility
EDT Latitude Longitude Course Direction KTS MPH feet Rate Location/Type
07:09PM 41.9333 -87.9000 169° South 170 196 2,000  Level Chicago TRACON
07:10PM 41.8833 -87.9000 180° South 223 257 3,500 2,040 Climbing Chicago TRACON
07:11PM 41.7903 -87.8861 174° South 269 310 6,400 2,700 Climbing Chicago Center
07:12PM 41.7133 -87.8494 160° South 305 351 9,700 2,520 Climbing Chicago Center
07:13PM 41.6372 -87.7758 144° Southeast 335 386 11,600 2,400 Climbing Chicago Center
07:14PM 41.5139 -87.3650 169° South  Level Estimated
07:14PM 41.5550 -87.6972 144° Southeast 358 412 14,700  Level Chicago Center
07:15PM 41.4750 -87.6186 144° Southeast 356 410 17,100 2,040 Climbing Chicago Center
07:16PM 41.3817 -87.5647 157° South 368 423 19,000 1,800 Climbing Chicago Center
07:17PM 41.2753 -87.5464 173° South 381 438 20,800 1,980 Climbing Chicago Center
07:18PM 41.1658 -87.5247 172° South 392 451 23,100 1,980 Climbing Chicago Center
07:19PM 41.0350 -87.4883 168° South 398 458 24,900 1,560 Climbing Chicago Center
07:20PM 40.9197 -87.4575 169° South 417 480 26,300 1,260 Climbing Chicago Center
07:21PM 40.8044 -87.4253 168° South 422 486 27,600 1,260 Climbing Chicago Center
07:22PM 40.6911 -87.3578 156° South 444 511 28,900 1,200 Climbing Chicago Center
07:23PM 40.5778 -87.2836 154° Southeast 453 521 30,100 1,020 Climbing Chicago Center
07:24PM 40.4656 -87.2086 153° Southeast 455 524 31,100 1,020 Climbing Chicago Center
07:25PM 40.3433 -87.1303 154° Southeast 465 535 32,200 900 Climbing Chicago Center
07:27PM 40.2269 -87.0564 154° Southeast 467 537 33,000 360 Climbing Chicago Center
07:28PM 40.1147 -86.9842 154° Southeast 454 522 33,000  Level Chicago Center
07:28PM 40.0244 -86.9258 154° Southeast 446 513 33,000  Level Indianapolis Center
07:29PM 39.9169 -86.8467 151° Southeast 448 516 33,000  Level Indianapolis Center
07:30PM 39.7914 -86.7425 147° Southeast 450 518 33,000  Level Indianapolis Center
07:31PM 39.6967 -86.6400 140° Southeast 451 519 33,000  Level Indianapolis Center
07:32PM 39.6347 -86.4992 120° Southeast 456 525 33,000  Level Indianapolis Center
07:33PM 39.5736 -86.3594 120° Southeast 456 525 33,000  Level Indianapolis Center
07:34PM 39.5125 -86.2192 119° Southeast 456 525 33,000  Level Indianapolis Center
07:35PM 39.4519 -86.0806 119° Southeast 451 519 33,000  Level Indianapolis Center
07:36PM 39.3775 -85.9131 120° Southeast 451 519 33,000  Level Indianapolis Center
07:37PM 39.3161 -85.7731 120° Southeast 450 518 33,000  Level Indianapolis Center
07:39PM 39.2389 -85.6469 128° Southeast 447 514 33,000  Level Indianapolis Center
07:40PM 39.1528 -85.5331 134° Southeast 445 512 33,000  Level Indianapolis Center
07:41PM 39.0672 -85.4203 134° Southeast 443 510 33,000  Level Indianapolis Center
07:42PM 38.9822 -85.3078 134° Southeast 439 505 33,000  Level Indianapolis Center
07:43PM 38.8964 -85.1958 135° Southeast 441 507 33,000  Level Indianapolis Center
07:44PM 38.8103 -85.0839 135° Southeast 442 509 33,000  Level Indianapolis Center
07:45PM 38.7239 -84.9703 134° Southeast 445 512 33,000  Level Indianapolis Center
07:46PM 38.6239 -84.8400 134° Southeast 444 511 33,000  Level Indianapolis Center
07:47PM 38.5381 -84.7289 135° Southeast 439 505 33,000  Level Indianapolis Center
07:48PM 38.4508 -84.6178 135° Southeast 441 507 33,000  Level Indianapolis Center
07:49PM 38.3647 -84.5053 134° Southeast 443 510 33,000  Level Indianapolis Center
07:50PM 38.2772 -84.3950 135° Southeast 440 506 33,000  Level Indianapolis Center
07:51PM 38.1914 -84.2850 135° Southeast 439 505 33,000  Level Indianapolis Center
07:52PM 38.1047 -84.1756 135° Southeast 438 504 33,000  Level Indianapolis Center
07:53PM 38.0039 -84.0489 135° Southeast 437 503 33,000  Level Indianapolis Center
07:54PM 37.9169 -83.9389 135° Southeast 440 506 33,000  Level Indianapolis Center
07:55PM 37.8300 -83.8275 135° Southeast 442 509 33,000  Level Indianapolis Center
07:56PM 37.7431 -83.7192 135° Southeast 439 505 33,000  Level Indianapolis Center
07:57PM 37.6553 -83.6097 135° Southeast 441 507 33,000  Level Indianapolis Center
07:58PM 37.5669 -83.4994 135° Southeast 444 511 33,000  Level Indianapolis Center
07:59PM 37.4783 -83.3892 135° Southeast 446 513 33,000  Level Indianapolis Center
08:00PM 37.3900 -83.2806 136° Southeast 445 512 33,000  Level Indianapolis Center
08:01PM 37.3006 -83.1711 136° Southeast 445 512 33,000  Level Indianapolis Center
08:02PM 37.2111 -83.0614 136° Southeast 448 516 33,000 -540 Level Indianapolis Center
08:03PM 37.1203 -82.9503 136° Southeast 451 519 31,900 -1,800 Descending Indianapolis Center
08:04PM 37.0242 -82.8317 135° Southeast 472 543 29,400 -2,460 Descending Indianapolis Center
08:05PM 36.9308 -82.7194 136° Southeast 452 520 27,000 -1,200 Descending Indianapolis Center
08:06PM 36.8419 -82.6136 136° Southeast 437 503 27,000  Level Indianapolis Center
08:07PM 36.7539 -82.5083 136° Southeast 436 502 27,000 -60 Level Indianapolis Center
08:08PM 36.6519 -82.3861 136° Southeast 435 501 26,900 -540 Descending Indianapolis Center
08:09PM 36.5681 -82.2869 136° Southeast 419 482 26,000 -1,260 Descending Indianapolis Center
08:10PM 36.4781 -82.1797 136° Southeast 404 465 24,200 -960 Descending Atlanta Center
08:11PM 36.3914 -82.1019 144° Southeast 392 451 24,000 -120 Descending Atlanta Center
08:12PM 36.3006 -82.0397 151° Southeast 381 438 24,000 -900 Level Atlanta Center
08:13PM 36.2119 -81.9825 152° Southeast 366 421 22,300 -1,740 Descending Atlanta Center
08:14PM 36.1214 -81.9233 152° Southeast 366 421 20,600 -1,740 Descending Atlanta Center
08:15PM 36.0328 -81.8639 152° Southeast 366 421 18,900 -1,680 Descending Atlanta Center
08:16PM 35.9483 -81.8097 153° Southeast 361 415 17,300 -1,500 Descending Atlanta Center
08:17PM 35.8722 -81.7606 152° Southeast 347 399 16,000 -1,500 Descending Atlanta Center
08:18PM 35.8047 -81.7189 153° Southeast 337 388 14,700 -1,620 Descending Atlanta Center
08:18PM 35.7900 -81.7067 146° Southeast 342 394 14,400 -1,500 Descending Atlanta Center
08:19PM 35.7117 -81.6550 152° Southeast 324 373 12,800 -1,560 Descending Atlanta Center
08:20PM 35.6314 -81.6039 153° Southeast 324 373 11,300 -900 Descending Atlanta Center
08:21PM 35.5694 -81.5317 137° Southeast 319 367 11,000 -480 Descending Atlanta Center
08:22PM 35.5322 -81.4358 115° Southeast 308 354 10,400 -900 Descending Atlanta Center
08:23PM 35.5111 -81.3344 104° East 300 345 9,200 -1,200 Descending Atlanta Center
08:24PM 35.4922 -81.2356 103° East 305 351 8,000 -1,200 Descending Atlanta Center
08:25PM 35.4711 -81.1367 105° East 300 345 6,800 -1,200 Descending Atlanta Center
08:26PM 35.4522 -81.0431 104° East 289 333 5,700 -1,200 Descending Atlanta Center
08:27PM 35.4372 -81.0233 133° Southeast 266 306 5,300 -840 Descending Atlanta Center
08:27PM 35.3967 -80.9917 148° Southeast 250 288 4,900 -900 Descending Atlanta Center
08:28PM 35.3756 -80.9847 165° South 215 247 4,400 -1,440 Descending Atlanta Center
08:29PM 35.3275 -80.9764 172° South 164 189 3,100 -1,200 Descending Atlanta Center
08:30PM 35.2858 -80.9753 179° South 140 161 2,000 -1,140 Descending Atlanta Center